Terminal Aerodrome Forecast
Issued by NWS Glasgow, MT

Home | Current Version | Previous Version | Text Only | Print | Product List | Glossary On
Versions: 1 2 3 4 5 6 7 8 9 10 11 12 13 14
809
FTUS45 KGGW 241142
TAFGGW
TAF
KGGW 241142Z 2412/2512 VRB03KT P6SM FEW090
     FM241800 31010KT P6SM FEW100
     FM250300 36007KT P6SM FEW130
     FM251100 00000KT P6SM FEW070=

USA.gov is the U.S. government's official web portal to all federal, state and local government web resources and services.